Time;durP1;ratioP1;P1;durP2;ratioP2;P2;SDS_P1;SDS_P2;PMS_P1;PMS_P2;Temp;Humidity;BMP_temperature;BMP_pressure;BME280_temperature;BME280_humidity;BME280_pressure;Samples;Min_cycle;Max_cycle;Signal;HPM_P1;HPM_P2
2022/01/28 00:01:03;;;;;;;5.70;4.93;;;3.00;99.90;;;;;;5032716;28;20007;-61
2022/01/28 00:03:31;;;;;;;5.93;4.63;;;3.00;99.90;;;;;;5047701;28;20024;-60
2022/01/28 00:05:57;;;;;;;4.88;4.38;;;3.00;99.90;;;;;;5049226;28;20108;-61
2022/01/28 00:08:23;;;;;;;5.07;4.57;;;3.00;99.90;;;;;;5032240;28;20570;-61
2022/01/28 00:10:50;;;;;;;5.85;4.93;;;3.00;99.90;;;;;;5047896;28;20033;-61
2022/01/28 00:13:22;;;;;;;6.22;5.32;;;3.10;99.90;;;;;;5036836;28;20404;-61
2022/01/28 00:37:13;;;;;;;5.97;5.05;;;3.40;99.90;;;;;;5044159;28;20084;-62
2022/01/28 00:39:38;;;;;;;7.03;4.97;;;3.40;99.90;;;;;;5028439;28;20033;-62
2022/01/28 00:42:05;;;;;;;6.32;5.25;;;3.40;99.90;;;;;;5045722;28;20074;-61
2022/01/28 00:44:31;;;;;;;7.13;5.28;;;3.50;99.90;;;;;;5030688;28;20030;-62
2022/01/28 00:46:57;;;;;;;4.70;4.22;;;3.50;99.90;;;;;;5022984;28;20030;-62
2022/01/28 00:49:23;;;;;;;5.10;3.92;;;3.50;99.90;;;;;;5026942;28;20048;-62
2022/01/28 00:51:48;;;;;;;8.95;6.10;;;3.50;99.90;;;;;;5029335;28;20476;-62
2022/01/28 00:54:14;;;;;;;9.13;6.03;;;3.60;99.90;;;;;;5046127;28;20025;-62
2022/01/28 00:56:40;;;;;;;6.63;4.60;;;3.60;99.90;;;;;;5031375;28;20048;-61
2022/01/28 00:59:05;;;;;;;5.32;4.57;;;3.60;99.90;;;;;;5041628;28;20035;-61
2022/01/28 01:01:31;;;;;;;6.75;5.28;;;3.60;99.90;;;;;;5038124;28;20400;-61
2022/01/28 01:03:58;;;;;;;6.40;5.72;;;3.60;99.90;;;;;;5024171;28;20117;-61
2022/01/28 01:06:23;;;;;;;6.82;6.13;;;3.60;99.90;;;;;;5026475;28;20033;-61
2022/01/28 01:08:49;;;;;;;8.30;7.45;;;3.60;99.90;;;;;;5049596;28;20040;-61
2022/01/28 01:11:19;;;;;;;12.60;9.00;;;3.50;99.90;;;;;;5035444;28;20488;-61
2022/01/28 01:13:45;;;;;;;7.72;6.85;;;3.50;99.90;;;;;;5039053;28;20142;-62
2022/01/28 01:16:13;;;;;;;8.23;5.28;;;3.50;99.90;;;;;;5038792;28;20508;-62
2022/01/28 01:18:55;;;;;;;7.75;5.05;;;3.40;99.90;;;;;;5028859;28;20499;-62
2022/01/28 01:21:26;;;;;;;5.85;4.57;;;3.40;99.90;;;;;;5031072;28;20029;-61
2022/01/28 01:23:55;;;;;;;5.85;4.40;;;3.30;99.90;;;;;;5026985;28;20112;-61
2022/01/28 01:26:32;;;;;;;7.18;5.78;;;3.30;99.90;;;;;;5022035;28;20026;-61
2022/01/28 01:28:59;;;;;;;7.05;5.90;;;3.30;99.90;;;;;;5040100;28;20025;-61
2022/01/28 01:31:25;;;;;;;7.35;5.78;;;3.30;99.90;;;;;;5037876;28;20034;-62
2022/01/28 01:34:32;;;;;;;9.48;6.65;;;3.20;99.90;;;;;;5034470;28;20365;-62
2022/01/28 01:36:39;;;;;;;9.20;6.40;;;3.30;99.90;;;;;;5043996;28;20037;-61
2022/01/28 01:39:08;;;;;;;7.28;6.55;;;3.30;99.90;;;;;;5025138;28;20121;-62
2022/01/28 01:41:43;;;;;;;8.82;6.10;;;3.30;99.90;;;;;;5046980;28;20090;-61
2022/01/28 01:52:08;;;;;;;4.25;3.22;;;3.10;99.90;;;;;;5028758;28;20040;-61
2022/01/28 01:54:38;;;;;;;4.45;3.38;;;3.10;99.90;;;;;;5047671;28;20021;-62
2022/01/28 01:57:05;;;;;;;3.88;2.30;;;3.10;99.90;;;;;;5032394;28;20023;-61
2022/01/28 01:59:31;;;;;;;5.75;2.30;;;3.20;99.90;;;;;;5045602;28;20033;-61
2022/01/28 02:01:57;;;;;;;3.63;1.90;;;3.20;99.90;;;;;;5038372;28;20033;-61
2022/01/28 02:04:22;;;;;;;6.20;2.20;;;3.20;99.90;;;;;;5037807;28;20030;-61
2022/01/28 02:06:49;;;;;;;3.58;1.85;;;3.10;99.90;;;;;;5043766;28;20109;-61
2022/01/28 02:09:15;;;;;;;3.22;2.00;;;3.10;99.90;;;;;;5028934;28;20037;-62
2022/01/28 02:11:41;;;;;;;3.42;1.25;;;3.20;99.90;;;;;;5024977;28;20026;-62
2022/01/28 02:14:07;;;;;;;2.53;1.25;;;3.20;99.90;;;;;;5031363;28;20032;-62
2022/01/28 02:16:33;;;;;;;3.50;1.67;;;3.20;99.90;;;;;;5028901;28;20094;-61
2022/01/28 02:19:00;;;;;;;4.78;1.95;;;3.20;99.90;;;;;;5023669;28;20109;-62
2022/01/28 02:21:25;;;;;;;1.77;1.25;;;3.20;99.90;;;;;;5025611;28;20033;-62
2022/01/28 02:23:57;;;;;;;3.97;1.13;;;3.20;99.90;;;;;;5029155;28;20017;-61
2022/01/28 02:26:23;;;;;;;3.45;1.30;;;3.10;99.90;;;;;;5025340;28;20059;-62
2022/01/28 02:28:53;;;;;;;3.05;1.92;;;3.10;99.90;;;;;;5028095;28;20108;-62
2022/01/28 02:31:23;;;;;;;2.85;1.30;;;3.10;99.90;;;;;;5025475;28;20021;-61
2022/01/28 02:33:51;;;;;;;2.35;1.20;;;3.20;99.90;;;;;;5024192;28;20056;-62
2022/01/28 02:36:17;;;;;;;3.78;1.58;;;3.20;99.90;;;;;;5024688;28;20036;-61
2022/01/28 02:38:43;;;;;;;5.63;1.73;;;3.20;99.90;;;;;;5029332;28;20404;-62
2022/01/28 02:41:09;;;;;;;1.95;1.20;;;3.10;99.90;;;;;;5031698;28;20037;-62
2022/01/28 02:46:15;;;;;;;2.28;1.30;;;3.20;99.90;;;;;;5040764;28;20027;-61
2022/01/28 02:48:52;;;;;;;5.03;1.67;;;3.30;99.90;;;;;;5024915;28;20033;-62
2022/01/28 02:51:20;;;;;;;7.00;2.33;;;3.30;99.90;;;;;;5027386;28;20018;-61
2022/01/28 02:53:54;;;;;;;3.22;1.30;;;3.30;99.90;;;;;;5035866;28;20040;-61
2022/01/28 02:56:24;;;;;;;4.82;1.27;;;3.20;99.90;;;;;;5029406;28;20029;-61
2022/01/28 02:58:49;;;;;;;4.82;1.52;;;3.20;99.90;;;;;;5033448;28;20076;-61
2022/01/28 03:01:18;;;;;;;2.83;1.30;;;3.20;99.90;;;;;;5038984;28;20427;-61
2022/01/28 03:03:45;;;;;;;3.92;2.25;;;3.20;99.90;;;;;;5050778;28;20037;-62
2022/01/28 03:06:13;;;;;;;3.50;1.42;;;3.20;99.90;;;;;;5032974;28;20067;-61
2022/01/28 03:08:42;;;;;;;4.75;1.73;;;3.30;99.90;;;;;;5048648;28;20480;-61
2022/01/28 03:16:20;;;;;;;14.55;2.60;;;3.30;99.90;;;;;;5027434;28;20525;-61
2022/01/28 03:18:56;;;;;;;2.70;1.40;;;3.20;99.90;;;;;;5035227;28;20544;-62
2022/01/28 03:23:48;;;;;;;4.85;1.42;;;3.20;99.90;;;;;;5028564;28;20120;-61
2022/01/28 03:26:15;;;;;;;4.78;1.50;;;3.10;99.90;;;;;;5047676;28;20037;-61
2022/01/28 03:28:41;;;;;;;1.83;1.10;;;3.10;99.90;;;;;;5038009;28;20048;-61
2022/01/28 03:31:06;;;;;;;3.97;1.55;;;3.10;99.90;;;;;;5037314;28;20510;-62
2022/01/28 03:33:32;;;;;;;2.90;1.55;;;3.00;99.90;;;;;;5047019;28;20029;-62
2022/01/28 03:36:01;;;;;;;3.22;2.05;;;3.00;99.90;;;;;;5024962;28;20517;-61
2022/01/28 03:38:27;;;;;;;6.05;1.65;;;3.00;99.90;;;;;;5029565;28;20132;-62
2022/01/28 03:40:55;;;;;;;4.03;1.55;;;2.90;99.90;;;;;;5045157;28;20500;-61
2022/01/28 03:43:20;;;;;;;4.60;1.50;;;2.90;99.90;;;;;;5042093;28;20053;-62
2022/01/28 03:45:46;;;;;;;2.13;1.15;;;3.00;99.90;;;;;;5030969;28;20480;-62
2022/01/28 03:48:12;;;;;;;4.30;1.83;;;2.90;99.90;;;;;;5028651;28;20040;-61
2022/01/28 03:50:37;;;;;;;5.07;1.90;;;2.90;99.90;;;;;;5026323;28;20022;-62
2022/01/28 03:53:05;;;;;;;4.57;1.70;;;2.80;99.90;;;;;;5028508;28;20397;-61
2022/01/28 03:55:31;;;;;;;17.60;4.53;;;2.70;99.90;;;;;;5029486;28;20033;-61
2022/01/28 03:57:57;;;;;;;4.53;1.30;;;2.60;99.90;;;;;;5031501;28;20032;-61
2022/01/28 04:00:26;;;;;;;2.63;1.20;;;2.50;99.90;;;;;;5030087;28;20028;-61
2022/01/28 04:03:03;;;;;;;2.20;1.00;;;2.40;99.90;;;;;;5033205;28;20701;-61
2022/01/28 04:13:50;;;;;;;4.43;1.60;;;2.10;99.90;;;;;;5038341;28;20071;-61
2022/01/28 04:18:48;;;;;;;4.25;2.40;;;2.00;99.90;;;;;;5027693;28;20061;-61
2022/01/28 04:21:15;;;;;;;7.03;1.98;;;2.10;99.90;;;;;;5026651;28;20120;-61
2022/01/28 04:23:40;;;;;;;5.57;1.92;;;2.10;99.90;;;;;;5049170;28;20086;-62
2022/01/28 04:26:06;;;;;;;6.20;2.60;;;2.20;99.90;;;;;;5036252;28;20031;-61
2022/01/28 04:28:32;;;;;;;6.30;2.47;;;2.20;99.90;;;;;;5026734;28;20037;-61
2022/01/28 04:30:58;;;;;;;5.88;2.30;;;2.20;99.90;;;;;;5027810;28;20026;-61
2022/01/28 04:33:23;;;;;;;5.13;2.22;;;2.20;99.90;;;;;;5027345;28;20477;-65
2022/01/28 04:35:52;;;;;;;4.13;2.17;;;2.30;99.90;;;;;;5029491;28;20037;-62
2022/01/28 04:40:58;;;;;;;5.32;2.25;;;2.30;99.90;;;;;;5028317;28;20034;-61
2022/01/28 04:43:31;;;;;;;9.07;3.38;;;2.30;99.90;;;;;;5035153;28;20030;-62
2022/01/28 04:46:07;;;;;;;5.78;2.33;;;2.30;99.90;;;;;;5047043;28;20045;-61
2022/01/28 04:49:25;;;;;;;8.02;2.35;;;2.30;99.90;;;;;;5028665;28;20033;-62
2022/01/28 04:51:43;;;;;;;4.25;2.60;;;2.30;99.90;;;;;;5043079;28;20044;-61
2022/01/28 05:27:51;;;;;;;7.00;1.42;;;2.40;99.90;;;;;;5029652;28;20029;-62
2022/01/28 05:30:17;;;;;;;5.38;1.35;;;2.40;99.90;;;;;;5031095;28;20033;-62
2022/01/28 05:32:43;;;;;;;3.60;1.45;;;2.40;99.90;;;;;;5029560;28;20122;-61
2022/01/28 05:35:09;;;;;;;7.53;1.60;;;2.40;99.90;;;;;;5027471;28;20171;-61
2022/01/28 05:37:34;;;;;;;6.22;1.05;;;2.40;99.90;;;;;;5028324;28;20033;-62
2022/01/28 05:40:00;;;;;;;4.10;1.50;;;2.50;99.90;;;;;;5027807;28;20444;-62
2022/01/28 05:42:26;;;;;;;3.17;1.40;;;2.60;99.90;;;;;;5028261;28;20022;-62
2022/01/28 05:44:52;;;;;;;2.88;1.17;;;2.60;99.90;;;;;;5046147;28;20507;-62
2022/01/28 05:47:17;;;;;;;4.18;1.42;;;2.60;99.90;;;;;;5032900;28;20033;-61
2022/01/28 05:49:44;;;;;;;4.38;1.10;;;2.60;99.90;;;;;;5036016;28;20025;-61
2022/01/28 05:52:10;;;;;;;6.13;1.75;;;2.70;99.90;;;;;;5040690;28;20506;-61
2022/01/28 05:54:35;;;;;;;5.07;0.98;;;2.70;99.90;;;;;;5025808;28;20100;-62
2022/01/28 05:57:02;;;;;;;7.85;1.25;;;2.70;99.90;;;;;;5022423;28;20079;-61
2022/01/28 05:59:28;;;;;;;7.82;1.65;;;2.60;99.90;;;;;;5025891;28;20083;-62
2022/01/28 06:01:53;;;;;;;8.90;2.60;;;2.60;99.90;;;;;;5029726;28;20042;-61
2022/01/28 06:04:21;;;;;;;3.67;1.20;;;2.60;99.90;;;;;;5038703;28;20036;-62
2022/01/28 06:06:47;;;;;;;7.28;0.90;;;2.50;99.90;;;;;;5045089;28;20049;-61
2022/01/28 06:09:12;;;;;;;7.20;1.25;;;2.50;99.90;;;;;;5026193;28;20115;-62
2022/01/28 06:11:38;;;;;;;8.38;1.23;;;2.40;99.90;;;;;;5047531;28;20492;-62
2022/01/28 06:14:04;;;;;;;5.78;1.42;;;2.40;99.90;;;;;;5036507;28;20038;-62
2022/01/28 06:16:30;;;;;;;4.72;1.50;;;2.30;99.90;;;;;;5042534;28;20044;-61
2022/01/28 06:18:55;;;;;;;10.50;1.38;;;2.30;99.90;;;;;;5046043;28;20057;-61
2022/01/28 06:21:21;;;;;;;6.78;1.45;;;2.20;99.90;;;;;;5027283;28;20033;-61
2022/01/28 06:23:47;;;;;;;12.10;3.05;;;2.20;99.90;;;;;;5031179;28;20049;-62
2022/01/28 06:26:12;;;;;;;9.18;1.30;;;2.20;99.90;;;;;;5045006;28;20503;-62
2022/01/28 06:28:38;;;;;;;4.47;1.00;;;2.20;99.90;;;;;;5038671;28;20029;-62
2022/01/28 06:31:04;;;;;;;3.00;1.00;;;2.20;99.90;;;;;;5037992;28;20045;-62
2022/01/28 06:33:29;;;;;;;4.13;1.13;;;2.30;99.90;;;;;;5049983;28;20048;-62
2022/01/28 06:35:55;;;;;;;8.75;1.55;;;2.40;99.90;;;;;;5032036;28;20097;-62
2022/01/28 06:38:21;;;;;;;7.00;1.30;;;2.40;99.90;;;;;;5043915;28;20055;-62
2022/01/28 06:40:49;;;;;;;9.73;1.48;;;2.40;99.90;;;;;;5038556;28;20041;-62
2022/01/28 06:43:15;;;;;;;5.35;1.77;;;2.40;99.90;;;;;;5031971;28;20082;-62
2022/01/28 06:45:42;;;;;;;5.40;1.15;;;2.40;99.90;;;;;;5033471;28;20021;-62
2022/01/28 06:48:10;;;;;;;5.30;1.00;;;2.40;99.90;;;;;;5049778;28;20536;-62
2022/01/28 06:50:42;;;;;;;4.85;1.27;;;2.40;99.90;;;;;;5034020;28;20029;-62
2022/01/28 06:53:09;;;;;;;4.60;1.25;;;2.50;99.90;;;;;;5044607;28;20033;-62
2022/01/28 06:55:35;;;;;;;8.13;2.53;;;2.50;99.90;;;;;;5037420;28;20388;-62
2022/01/28 06:58:02;;;;;;;6.40;1.05;;;2.60;99.90;;;;;;5029227;28;20072;-62
2022/01/28 07:00:30;;;;;;;3.47;1.08;;;2.60;99.90;;;;;;5027731;28;20040;-62
2022/01/28 07:02:56;;;;;;;3.40;0.80;;;2.60;99.90;;;;;;5048982;28;20021;-62
2022/01/28 07:05:21;;;;;;;4.10;1.33;;;2.50;99.90;;;;;;5036718;28;20036;-62
2022/01/28 07:07:47;;;;;;;4.65;0.93;;;2.50;99.90;;;;;;5042363;28;20488;-62
2022/01/28 07:10:13;;;;;;;3.33;1.60;;;2.40;99.90;;;;;;5048147;28;20040;-62
2022/01/28 07:12:38;;;;;;;3.78;1.15;;;2.40;99.90;;;;;;5028979;28;20053;-62
2022/01/28 07:15:05;;;;;;;2.47;0.70;;;2.40;99.90;;;;;;5048139;28;20713;-61
2022/01/28 07:17:30;;;;;;;2.08;0.88;;;2.40;99.90;;;;;;5030495;28;20504;-61
2022/01/28 07:19:56;;;;;;;8.43;1.42;;;2.40;99.90;;;;;;5040467;28;20064;-61
2022/01/28 07:22:21;;;;;;;3.92;1.63;;;2.50;99.90;;;;;;5042719;28;20099;-61
2022/01/28 07:24:47;;;;;;;6.38;0.98;;;2.60;99.90;;;;;;5032001;28;20495;-62
2022/01/28 07:27:19;;;;;;;3.13;1.40;;;2.60;99.90;;;;;;5031453;28;20047;-61
2022/01/28 07:29:47;;;;;;;5.53;1.08;;;2.70;99.90;;;;;;5030207;28;20037;-61
2022/01/28 07:32:13;;;;;;;1.85;1.17;;;2.70;99.90;;;;;;5029462;28;20041;-61
2022/01/28 07:34:38;;;;;;;5.72;2.03;;;2.70;99.90;;;;;;5035287;28;20053;-61
2022/01/28 07:37:04;;;;;;;3.60;1.20;;;2.70;99.90;;;;;;5045641;28;20060;-62
2022/01/28 07:39:30;;;;;;;4.68;1.20;;;2.80;99.90;;;;;;5030900;28;20029;-62
2022/01/28 07:41:56;;;;;;;5.55;3.03;;;2.70;99.90;;;;;;5048872;28;20035;-62
2022/01/28 07:44:22;;;;;;;4.50;1.33;;;2.70;99.90;;;;;;5033208;28;20819;-62
2022/01/28 07:46:48;;;;;;;4.93;1.63;;;2.80;99.90;;;;;;5042161;28;20116;-62
2022/01/28 07:49:13;;;;;;;10.95;2.25;;;2.70;99.90;;;;;;5044876;28;20045;-62
2022/01/28 07:51:41;;;;;;;4.95;1.80;;;2.70;99.90;;;;;;5030966;28;20148;-61
2022/01/28 07:54:08;;;;;;;29.02;9.82;;;2.70;99.90;;;;;;5050324;28;20077;-61
2022/01/28 07:56:33;;;;;;;5.45;1.67;;;2.70;99.90;;;;;;5032861;28;20083;-61
2022/01/28 07:58:59;;;;;;;2.85;1.20;;;2.60;99.90;;;;;;5041903;28;20033;-62
2022/01/28 08:01:25;;;;;;;10.75;1.80;;;2.70;99.90;;;;;;5040983;28;20041;-61
2022/01/28 08:03:51;;;;;;;5.70;2.25;;;2.70;99.90;;;;;;5032782;28;20040;-61
2022/01/28 08:06:16;;;;;;;5.57;2.20;;;2.60;99.90;;;;;;5044406;28;20029;-61
2022/01/28 08:08:42;;;;;;;4.43;1.65;;;2.70;99.90;;;;;;5029777;28;20032;-61
2022/01/28 08:11:08;;;;;;;10.60;2.28;;;2.60;99.90;;;;;;5044196;28;20059;-61
2022/01/28 08:13:33;;;;;;;5.65;3.45;;;2.60;99.90;;;;;;5037728;28;20130;-61
2022/01/28 08:15:59;;;;;;;4.70;1.40;;;2.60;99.90;;;;;;5034528;28;20462;-62
2022/01/28 08:18:24;;;;;;;9.43;2.38;;;2.60;99.90;;;;;;5046470;28;20035;-63
2022/01/28 08:20:50;;;;;;;3.28;1.40;;;2.70;99.90;;;;;;5027508;28;20026;-62
2022/01/28 08:23:16;;;;;;;2.90;1.58;;;2.70;99.90;;;;;;5044156;28;20492;-61
2022/01/28 08:25:42;;;;;;;4.03;1.75;;;2.80;99.90;;;;;;5038044;28;20033;-62
2022/01/28 08:28:07;;;;;;;4.55;1.58;;;2.80;99.90;;;;;;5033434;28;20515;-61
2022/01/28 08:30:37;;;;;;;4.38;1.30;;;2.90;99.90;;;;;;5048113;28;20025;-62
2022/01/28 08:33:04;;;;;;;4.32;1.45;;;2.90;99.90;;;;;;5027297;28;20033;-62
2022/01/28 08:35:33;;;;;;;4.20;1.20;;;2.90;99.90;;;;;;5049781;28;20040;-62
2022/01/28 08:37:59;;;;;;;6.13;1.50;;;3.00;99.90;;;;;;5036839;28;20033;-62
2022/01/28 08:40:27;;;;;;;5.00;2.38;;;3.00;99.90;;;;;;5028230;28;20040;-62
2022/01/28 08:42:52;;;;;;;5.00;1.40;;;3.10;99.90;;;;;;5026851;28;20025;-62
2022/01/28 08:45:18;;;;;;;5.72;1.40;;;3.10;99.90;;;;;;5028386;28;20496;-62
2022/01/28 08:47:44;;;;;;;3.22;1.20;;;3.20;99.90;;;;;;5029255;28;20022;-61
2022/01/28 08:50:10;;;;;;;8.90;1.50;;;3.20;99.90;;;;;;5030365;28;20506;-62
2022/01/28 08:52:36;;;;;;;8.80;1.38;;;3.30;99.90;;;;;;5025949;28;20029;-62
2022/01/28 08:55:03;;;;;;;1.92;1.15;;;3.30;99.90;;;;;;5026848;28;20516;-62
2022/01/28 08:57:28;;;;;;;5.15;1.40;;;3.40;99.90;;;;;;5028257;28;20268;-62
2022/01/28 08:59:54;;;;;;;5.20;1.25;;;3.50;99.90;;;;;;5026283;28;20033;-62
2022/01/28 09:02:19;;;;;;;5.13;1.10;;;3.50;99.90;;;;;;5015890;28;20116;-61
2022/01/28 09:04:46;;;;;;;6.05;2.15;;;3.60;99.90;;;;;;5037398;28;20017;-62
2022/01/28 09:07:12;;;;;;;6.20;1.00;;;3.60;99.90;;;;;;5044392;28;20370;-62
2022/01/28 09:09:47;;;;;;;5.45;1.15;;;3.70;99.90;;;;;;5032448;28;20652;-61
2022/01/28 09:12:48;;;;;;;6.68;1.75;;;3.80;99.90;;;;;;5047640;28;20021;-61
2022/01/28 09:15:08;;;;;;;2.22;1.00;;;3.80;99.90;;;;;;5042496;28;20029;-62
2022/01/28 09:17:34;;;;;;;2.30;0.82;;;3.90;99.90;;;;;;5030047;28;20423;-61
2022/01/28 09:20:01;;;;;;;4.78;1.17;;;3.90;99.90;;;;;;5026443;28;20035;-62
2022/01/28 09:22:27;;;;;;;4.82;0.90;;;4.00;99.90;;;;;;5027280;28;20032;-62
2022/01/28 09:24:53;;;;;;;5.90;0.90;;;4.00;99.90;;;;;;5025704;28;20101;-62
2022/01/28 09:27:19;;;;;;;3.13;1.00;;;4.00;99.90;;;;;;5024572;28;20096;-62
2022/01/28 09:29:44;;;;;;;4.97;0.98;;;4.10;99.90;;;;;;5029868;28;20041;-62
2022/01/28 09:32:10;;;;;;;3.35;0.90;;;4.10;99.90;;;;;;5027089;28;20025;-61
2022/01/28 09:34:36;;;;;;;4.35;1.48;;;4.10;99.90;;;;;;5036507;28;20136;-62
2022/01/28 09:37:01;;;;;;;4.07;1.00;;;4.00;99.90;;;;;;5042253;28;20116;-62
2022/01/28 09:39:29;;;;;;;10.48;1.42;;;4.10;99.90;;;;;;5029498;28;20056;-62
2022/01/28 09:42:01;;;;;;;3.42;1.20;;;4.10;99.90;;;;;;5050065;28;20021;-62
2022/01/28 09:44:30;;;;;;;3.83;1.10;;;4.10;99.90;;;;;;5027788;28;20026;-62
2022/01/28 09:46:58;;;;;;;8.40;1.95;;;4.20;99.90;;;;;;5040686;28;20033;-62
2022/01/28 09:49:25;;;;;;;8.88;1.38;;;4.10;99.90;;;;;;5040004;28;20111;-62
2022/01/28 09:51:50;;;;;;;4.03;1.38;;;4.10;99.90;;;;;;5029945;28;20049;-62
2022/01/28 09:54:16;;;;;;;10.15;1.92;;;4.20;99.90;;;;;;5025191;28;20063;-62
2022/01/28 09:56:42;;;;;;;8.38;1.85;;;4.20;99.90;;;;;;5030471;28;20022;-62
2022/01/28 09:59:08;;;;;;;6.05;1.30;;;4.20;99.90;;;;;;5036374;28;20100;-62
2022/01/28 10:01:33;;;;;;;8.77;1.45;;;4.20;99.90;;;;;;5038245;28;20492;-62
2022/01/28 10:04:04;;;;;;;6.03;1.40;;;4.20;99.90;;;;;;5038502;28;20137;-62
2022/01/28 10:06:31;;;;;;;;;;;4.20;99.90;;;;;;5026754;28;20022;-63
2022/01/28 10:08:56;;;;;;;7.93;1.52;;;4.30;99.90;;;;;;5046548;28;19915;-62
2022/01/28 10:11:22;;;;;;;4.55;1.55;;;4.30;99.90;;;;;;5033331;28;20059;-62
2022/01/28 10:13:52;;;;;;;6.53;1.80;;;4.30;99.90;;;;;;5041654;28;20024;-62
2022/01/28 10:16:27;;;;;;;3.20;1.60;;;4.40;99.90;;;;;;5040708;28;20117;-62
2022/01/28 10:19:02;;;;;;;10.45;1.30;;;4.40;99.90;;;;;;5025109;28;20548;-62
2022/01/28 10:21:40;;;;;;;6.28;0.98;;;4.40;99.90;;;;;;5026970;28;20061;-63
2022/01/28 10:24:16;;;;;;;3.30;1.00;;;4.50;99.90;;;;;;5026337;28;20014;-63
2022/01/28 10:26:54;;;;;;;2.20;0.90;;;4.40;99.90;;;;;;5045495;28;20033;-63
2022/01/28 10:29:23;;;;;;;12.45;1.45;;;4.50;99.90;;;;;;5029152;28;20030;-63
2022/01/28 10:31:57;;;;;;;4.07;1.10;;;4.60;99.90;;;;;;5041319;28;20119;-63
2022/01/28 10:34:37;;;;;;;2.88;1.27;;;4.70;99.90;;;;;;5036949;28;20060;-64
2022/01/28 10:37:06;;;;;;;5.40;1.13;;;4.70;99.90;;;;;;5032670;28;20033;-63
2022/01/28 10:39:42;;;;;;;5.82;1.60;;;4.80;99.90;;;;;;5043426;28;20029;-63
2022/01/28 10:42:08;;;;;;;7.95;2.03;;;4.90;99.90;;;;;;5026533;28;20036;-63
2022/01/28 10:44:57;;;;;;;4.57;1.10;;;4.90;99.90;;;;;;5046899;28;20021;-62
2022/01/28 10:47:56;;;;;;;3.55;1.33;;;5.00;99.90;;;;;;5026171;28;20042;-63
2022/01/28 10:50:35;;;;;;;5.53;1.17;;;5.00;99.90;;;;;;5013963;28;20033;-64
2022/01/28 10:53:04;;;;;;;6.20;1.58;;;5.10;99.90;;;;;;5029175;28;20025;-62
2022/01/28 10:55:32;;;;;;;6.20;1.60;;;5.10;99.90;;;;;;5028722;28;20044;-64
2022/01/28 10:58:01;;;;;;;7.47;1.13;;;5.10;99.90;;;;;;5032029;28;20397;-63
2022/01/28 11:00:30;;;;;;;4.10;1.20;;;5.10;99.90;;;;;;5024708;28;20140;-63
2022/01/28 11:02:59;;;;;;;5.18;1.20;;;5.10;99.90;;;;;;5033299;28;20006;-63
2022/01/28 11:05:27;;;;;;;5.20;1.63;;;5.00;99.90;;;;;;4988796;28;20121;-64
2022/01/28 11:07:53;;;;;;;6.45;1.38;;;5.00;99.90;;;;;;5023894;28;20025;-63
2022/01/28 11:10:19;;;;;;;5.70;1.42;;;5.00;99.90;;;;;;5031265;28;20030;-63
2022/01/28 11:12:45;;;;;;;5.82;2.47;;;5.00;99.90;;;;;;5026834;28;20511;-63
2022/01/28 11:15:12;;;;;;;9.32;1.30;;;5.00;99.90;;;;;;5031234;28;20024;-63
2022/01/28 11:17:37;;;;;;;9.38;2.42;;;4.90;99.90;;;;;;5047967;28;20037;-63
2022/01/28 11:20:06;;;;;;;5.80;1.60;;;4.90;99.90;;;;;;5034179;28;20396;-62
2022/01/28 11:22:52;;;;;;;5.78;2.13;;;4.90;99.90;;;;;;5031751;28;20025;-63
2022/01/28 11:25:36;;;;;;;10.07;2.30;;;4.80;99.90;;;;;;5034105;28;20033;-63
2022/01/28 11:28:07;;;;;;;5.82;1.73;;;4.80;99.90;;;;;;5042341;28;20196;-63
2022/01/28 11:30:33;;;;;;;7.05;1.60;;;4.70;99.90;;;;;;5029169;28;20033;-63
2022/01/28 11:33:01;;;;;;;6.22;1.25;;;4.60;99.90;;;;;;5051271;28;20023;-63
2022/01/28 11:35:35;;;;;;;8.85;1.85;;;4.30;99.90;;;;;;5034587;28;20580;-62
2022/01/28 11:38:21;;;;;;;6.65;1.33;;;4.00;99.90;;;;;;5043326;28;20048;-63
2022/01/28 11:41:15;;;;;;;7.45;1.48;;;3.80;99.90;;;;;;5034183;28;20061;-62
2022/01/28 11:43:49;;;;;;;7.45;1.30;;;3.50;99.90;;;;;;5039664;28;20029;-63
2022/01/28 11:46:23;;;;;;;11.68;2.40;;;3.40;99.90;;;;;;5043420;28;20052;-63
2022/01/28 11:49:04;;;;;;;21.23;7.88;;;3.20;99.90;;;;;;5035541;28;20021;-63
2022/01/28 11:51:32;;;;;;;21.45;5.43;;;3.10;99.90;;;;;;5046351;28;20143;-62
2022/01/28 11:54:04;;;;;;;23.80;5.72;;;3.00;99.90;;;;;;5025141;28;20550;-63
2022/01/28 11:56:30;;;;;;;12.02;3.53;;;3.00;99.90;;;;;;5042445;28;20045;-62
2022/01/28 11:59:07;;;;;;;9.20;3.28;;;3.10;99.90;;;;;;5042890;28;20163;-63
2022/01/28 12:01:39;;;;;;;6.75;1.80;;;3.20;99.90;;;;;;5039250;28;20038;-63
2022/01/28 12:04:27;;;;;;;10.30;1.75;;;3.20;99.90;;;;;;5032452;28;20037;-63
2022/01/28 12:07:10;;;;;;;6.00;2.38;;;3.30;99.90;;;;;;5040375;28;20040;-63
2022/01/28 12:09:38;;;;;;;5.65;2.42;;;3.30;99.90;;;;;;5026847;28;20113;-63
2022/01/28 12:12:11;;;;;;;11.63;2.80;;;3.30;99.90;;;;;;5047488;28;20040;-63
2022/01/28 12:14:49;;;;;;;9.88;3.60;;;3.40;99.90;;;;;;5037811;28;20030;-63
2022/01/28 12:17:38;;;;;;;12.38;4.00;;;3.40;99.90;;;;;;5029910;28;20041;-64
2022/01/28 12:20:19;;;;;;;5.88;3.22;;;3.50;99.90;;;;;;5028997;28;20040;-64
2022/01/28 12:23:01;;;;;;;7.77;1.43;;;3.50;99.90;;;;;;5027885;28;20052;-63
2022/01/28 12:25:56;;;;;;;5.15;1.40;;;3.60;99.90;;;;;;5037548;28;20275;-64
2022/01/28 12:28:27;;;;;;;8.73;2.53;;;3.80;99.90;;;;;;5038506;28;20029;-64
2022/01/28 12:31:04;;;;;;;12.05;2.60;;;3.90;99.90;;;;;;5030964;28;20032;-63
2022/01/28 12:33:36;;;;;;;8.90;3.00;;;4.10;99.90;;;;;;5044981;28;20100;-63
2022/01/28 12:36:09;;;;;;;7.20;2.63;;;4.20;99.90;;;;;;5025898;28;20022;-63
2022/01/28 12:38:42;;;;;;;7.07;2.17;;;4.30;99.90;;;;;;5023971;28;20045;-63
2022/01/28 12:41:09;;;;;;;6.45;2.33;;;4.50;99.90;;;;;;5044962;28;20040;-63
2022/01/28 12:43:38;;;;;;;9.32;2.47;;;4.60;99.90;;;;;;5037456;28;20033;-63
2022/01/28 12:46:10;;;;;;;8.85;1.85;;;4.70;99.90;;;;;;5028412;28;20034;-63
2022/01/28 12:48:44;;;;;;;12.02;1.75;;;4.80;99.90;;;;;;5029561;28;20228;-63
2022/01/28 12:51:10;;;;;;;16.27;2.13;;;4.80;99.90;;;;;;5032686;28;20036;-64
2022/01/28 12:53:45;;;;;;;14.50;1.80;;;4.80;99.90;;;;;;5028963;28;20028;-64
2022/01/28 12:56:12;;;;;;;10.18;2.53;;;4.80;99.90;;;;;;5030659;28;20060;-63
2022/01/28 12:58:47;;;;;;;8.13;1.67;;;4.80;99.90;;;;;;5027126;28;20029;-63
2022/01/28 13:01:14;;;;;;;14.18;4.32;;;4.80;99.90;;;;;;5029910;28;20028;-63
2022/01/28 13:03:54;;;;;;;12.20;4.70;;;4.80;99.90;;;;;;5044970;28;20017;-63
2022/01/28 13:09:09;;;;;;;14.70;3.35;;;4.80;99.90;;;;;;5050192;28;20033;-64
2022/01/28 13:11:41;;;;;;;10.27;4.63;;;4.80;99.90;;;;;;5023864;28;20109;-63
2022/01/28 13:14:07;;;;;;;11.45;3.15;;;4.90;99.90;;;;;;5042474;28;20087;-63
2022/01/28 13:16:41;;;;;;;9.80;2.83;;;4.90;99.90;;;;;;5037817;28;20412;-63
2022/01/28 13:19:07;;;;;;;10.43;2.92;;;4.90;99.90;;;;;;5034475;28;20021;-63
2022/01/28 13:21:34;;;;;;;7.72;2.08;;;4.90;99.90;;;;;;5046159;28;20119;-63
2022/01/28 13:24:03;;;;;;;8.80;2.70;;;4.90;99.90;;;;;;5026671;28;20104;-63
2022/01/28 13:26:29;;;;;;;14.07;3.80;;;4.90;99.90;;;;;;5048332;28;20189;-64
2022/01/28 13:29:09;;;;;;;10.68;2.80;;;4.90;99.90;;;;;;5038459;28;20035;-64
2022/01/28 13:31:35;;;;;;;13.90;2.75;;;4.90;99.90;;;;;;5037418;28;20056;-63
2022/01/28 13:34:04;;;;;;;8.90;3.03;;;4.90;99.90;;;;;;5042817;28;20017;-63
2022/01/28 13:36:52;;;;;;;11.93;3.08;;;4.80;99.90;;;;;;5029030;28;20024;-64
2022/01/28 13:39:21;;;;;;;8.45;2.50;;;4.90;99.90;;;;;;5045674;28;20045;-63
2022/01/28 13:42:05;;;;;;;7.03;1.77;;;4.90;99.90;;;;;;5027915;28;20092;-63
2022/01/28 13:44:33;;;;;;;18.10;5.15;;;4.90;99.90;;;;;;5043067;28;20028;-64
2022/01/28 13:47:01;;;;;;;15.40;4.63;;;4.90;99.90;;;;;;5035399;28;20031;-64
2022/01/28 13:49:29;;;;;;;11.68;2.50;;;4.90;99.90;;;;;;5026711;28;20152;-63
2022/01/28 13:52:42;;;;;;;9.45;2.60;;;4.90;99.90;;;;;;5027049;28;20029;-63
2022/01/28 13:55:30;;;;;;;7.38;2.30;;;4.90;99.90;;;;;;5023210;28;20378;-63
2022/01/28 13:58:04;;;;;;;17.05;5.60;;;5.00;99.90;;;;;;5028916;28;20030;-63
2022/01/28 14:00:56;;;;;;;14.85;2.33;;;5.10;99.90;;;;;;5027630;28;20029;-63
2022/01/28 14:03:23;;;;;;;17.20;2.65;;;5.10;99.90;;;;;;5021823;28;20029;-62
2022/01/28 14:06:00;;;;;;;16.10;4.57;;;5.10;99.90;;;;;;5023931;28;20591;-63
2022/01/28 14:08:36;;;;;;;10.27;2.90;;;5.00;99.90;;;;;;5043965;28;20108;-63
2022/01/28 14:11:20;;;;;;;8.85;1.98;;;5.10;99.90;;;;;;5032266;28;20025;-63
2022/01/28 14:14:15;;;;;;;6.88;2.53;;;5.00;99.70;;;;;;5035661;28;20029;-64
2022/01/28 14:17:01;;;;;;;10.77;1.90;;;5.00;99.20;;;;;;5034231;28;20038;-63
2022/01/28 14:19:29;;;;;;;8.20;2.63;;;4.90;99.90;;;;;;5027842;28;20029;-63
2022/01/28 14:21:57;;;;;;;10.32;2.03;;;4.90;98.80;;;;;;5025853;28;20084;-63
2022/01/28 14:24:26;;;;;;;9.43;2.30;;;4.80;98.90;;;;;;5026025;28;20041;-63
2022/01/28 14:31:57;;;;;;;4.63;1.58;;;4.80;98.00;;;;;;5024550;28;20034;-62
2022/01/28 14:34:23;;;;;;;10.30;2.28;;;4.80;97.30;;;;;;5031530;28;20443;-62
2022/01/28 14:36:50;;;;;;;9.82;2.08;;;4.70;97.20;;;;;;5031798;28;20061;-63
2022/01/28 14:39:16;;;;;;;11.13;2.47;;;4.70;97.10;;;;;;5032010;28;20095;-62
2022/01/28 14:41:43;;;;;;;6.72;2.05;;;4.70;97.30;;;;;;5031304;28;20037;-63